Time;durP1;ratioP1;P1;durP2;ratioP2;P2;SDS_P1;SDS_P2;PMS_P1;PMS_P2;Temp;Humidity;BMP_temperature;BMP_pressure;BME280_temperature;BME280_humidity;BME280_pressure;Samples;Min_cycle;Max_cycle;Signal;HPM_P1;HPM_P2
2023/01/25 00:01:22;;;;;;;5.93;4.40;;;;;;;;;;6259951;28;20590;-79
2023/01/25 00:04:27;;;;;;;4.40;3.93;;;;;;;;;;6260104;28;20472;-79
2023/01/25 00:07:33;;;;;;;4.77;4.47;;;;;;;;;;6259402;28;20298;-80
2023/01/25 00:10:38;;;;;;;5.20;4.70;;;;;;;;;;6259616;28;20480;-80
2023/01/25 00:13:43;;;;;;;4.73;4.30;;;;;;;;;;6260311;28;20301;-80
2023/01/25 00:16:51;;;;;;;5.00;4.60;;;;;;;;;;6258850;28;20299;-79
2023/01/25 00:19:56;;;;;;;4.90;4.50;;;;;;;;;;6259726;28;20299;-80
2023/01/25 00:23:01;;;;;;;4.80;4.37;;;;;;;;;;6259284;28;20302;-80
2023/01/25 00:26:07;;;;;;;4.60;4.20;;;;;;;;;;6241971;28;20291;-81
2023/01/25 00:29:13;;;;;;;5.13;4.60;;;;;;;;;;6230795;28;20295;-79
2023/01/25 00:32:42;;;;;;;4.30;4.00;;;;;;;;;;6254494;28;20270;-80
2023/01/25 00:35:49;;;;;;;5.40;4.10;;;;;;;;;;6273158;28;20355;-79
2023/01/25 00:38:55;;;;;;;4.73;4.33;;;;;;;;;;6260413;28;20290;-79
2023/01/25 00:42:00;;;;;;;6.27;4.47;;;;;;;;;;6259869;28;20302;-79
2023/01/25 00:45:07;;;;;;;5.33;4.87;;;;;;;;;;6259128;28;20298;-79
2023/01/25 00:48:14;;;;;;;4.47;4.07;;;;;;;;;;6242496;28;20302;-80
2023/01/25 00:51:19;;;;;;;5.33;4.80;;;;;;;;;;6259161;28;20333;-80
2023/01/25 00:54:25;;;;;;;4.27;3.83;;;;;;;;;;6260097;28;20297;-79
2023/01/25 00:57:30;;;;;;;4.47;4.17;;;;;;;;;;6241709;28;20298;-81
2023/01/25 01:00:36;;;;;;;4.60;4.27;;;;;;;;;;6241962;28;20315;-79
2023/01/25 01:03:42;;;;;;;4.63;4.23;;;;;;;;;;6259521;28;20302;-80
2023/01/25 01:06:47;;;;;;;4.50;4.30;;;;;;;;;;6265472;28;20293;-80
2023/01/25 01:09:53;;;;;;;3.83;3.60;;;;;;;;;;6268547;28;20305;-80
2023/01/25 01:12:59;;;;;;;4.50;4.10;;;;;;;;;;6249803;28;20313;-80
2023/01/25 01:16:07;;;;;;;4.67;3.93;;;;;;;;;;6246973;28;20305;-80
2023/01/25 01:19:14;;;;;;;4.37;3.97;;;;;;;;;;6264879;28;20294;-81
2023/01/25 01:22:19;;;;;;;4.30;4.00;;;;;;;;;;6264121;28;20310;-81
2023/01/25 01:25:25;;;;;;;4.47;4.13;;;;;;;;;;6263965;28;20319;-81
2023/01/25 01:28:30;;;;;;;5.97;4.00;;;;;;;;;;6263411;28;20294;-80
2023/01/25 01:31:35;;;;;;;4.10;3.80;;;;;;;;;;6264628;28;20483;-80
2023/01/25 01:35:03;;;;;;;4.43;3.70;;;;;;;;;;6239248;28;20275;-80
2023/01/25 01:38:08;;;;;;;4.00;3.70;;;;;;;;;;6239563;28;20287;-79
2023/01/25 01:41:14;;;;;;;4.07;3.70;;;;;;;;;;6239505;28;20300;-79
2023/01/25 01:44:23;;;;;;;4.30;3.90;;;;;;;;;;6238349;28;20294;-80
2023/01/25 01:47:44;;;;;;;4.07;3.73;;;;;;;;;;6221428;28;20328;-80
2023/01/25 01:50:57;;;;;;;4.57;4.27;;;;;;;;;;6221130;28;20291;-80
2023/01/25 01:54:05;;;;;;;3.73;3.53;;;;;;;;;;6238689;28;20312;-80
2023/01/25 01:57:14;;;;;;;4.17;3.63;;;;;;;;;;6236868;28;20704;-80
2023/01/25 02:00:23;;;;;;;4.17;3.90;;;;;;;;;;6236781;28;20306;-80
2023/01/25 02:03:29;;;;;;;4.07;3.77;;;;;;;;;;6238129;28;20303;-81
2023/01/25 02:06:42;;;;;;;3.97;3.67;;;;;;;;;;6234928;28;20287;-79
2023/01/25 02:09:49;;;;;;;3.87;3.30;;;;;;;;;;6238476;28;20287;-79
2023/01/25 02:12:56;;;;;;;3.60;3.40;;;;;;;;;;6261791;28;20303;-79
2023/01/25 02:16:02;;;;;;;3.87;3.57;;;;;;;;;;6261768;28;20301;-80
2023/01/25 02:19:09;;;;;;;4.17;3.83;;;;;;;;;;6245317;28;20593;-80
2023/01/25 02:22:17;;;;;;;3.60;3.40;;;;;;;;;;6244168;28;20493;-79
2023/01/25 02:25:23;;;;;;;3.17;3.07;;;;;;;;;;6262225;28;20298;-80
2023/01/25 02:28:32;;;;;;;3.50;3.30;;;;;;;;;;6245144;28;20307;-79
2023/01/25 02:31:37;;;;;;;3.23;3.13;;;;;;;;;;6244469;28;20295;-79
2023/01/25 02:34:43;;;;;;;3.33;3.10;;;;;;;;;;6262440;28;20334;-80
2023/01/25 02:37:48;;;;;;;3.40;3.20;;;;;;;;;;6243383;28;20306;-78
2023/01/25 02:40:57;;;;;;;2.80;2.60;;;;;;;;;;6244286;28;20298;-80
2023/01/25 02:44:09;;;;;;;3.40;3.13;;;;;;;;;;6243705;28;20306;-80
2023/01/25 02:47:14;;;;;;;2.83;2.73;;;;;;;;;;6244146;28;20294;-79
2023/01/25 02:50:20;;;;;;;3.13;3.03;;;;;;;;;;6243382;28;20294;-80
2023/01/25 02:53:26;;;;;;;2.90;2.70;;;;;;;;;;6261586;28;20306;-80
2023/01/25 02:56:33;;;;;;;2.40;2.30;;;;;;;;;;6244132;28;20589;-79
2023/01/25 02:59:38;;;;;;;2.87;2.77;;;;;;;;;;6243704;28;20290;-80
2023/01/25 03:02:44;;;;;;;2.50;2.50;;;;;;;;;;6243080;28;20317;-80
2023/01/25 03:05:49;;;;;;;2.87;2.77;;;;;;;;;;6260707;28;20294;-80
2023/01/25 03:08:55;;;;;;;2.87;2.77;;;;;;;;;;6243415;28;20299;-81
2023/01/25 03:12:01;;;;;;;2.90;2.90;;;;;;;;;;6234943;28;20494;-80
2023/01/25 03:15:10;;;;;;;2.90;2.70;;;;;;;;;;6235536;28;20314;-80
2023/01/25 03:18:15;;;;;;;2.40;2.40;;;;;;;;;;6219179;28;20301;-81
2023/01/25 03:21:22;;;;;;;2.67;2.57;;;;;;;;;;6235888;28;20468;-80
2023/01/25 03:24:27;;;;;;;2.90;2.77;;;;;;;;;;6234533;28;20604;-79
2023/01/25 03:27:34;;;;;;;3.30;3.20;;;;;;;;;;6217844;28;20299;-80
2023/01/25 03:30:44;;;;;;;2.77;2.57;;;;;;;;;;6218033;28;20291;-80
2023/01/25 03:33:49;;;;;;;2.23;2.23;;;;;;;;;;6250341;28;20295;-80
2023/01/25 03:36:56;;;;;;;2.60;2.50;;;;;;;;;;6242982;28;20303;-80
2023/01/25 03:40:02;;;;;;;2.70;2.60;;;;;;;;;;6243600;28;20298;-80
2023/01/25 03:43:12;;;;;;;2.67;2.57;;;;;;;;;;6242474;28;20311;-82
2023/01/25 03:46:18;;;;;;;2.77;2.50;;;;;;;;;;6242210;28;20466;-80
2023/01/25 03:49:23;;;;;;;2.17;2.17;;;;;;;;;;6242574;28;20594;-81
2023/01/25 03:52:37;;;;;;;2.33;2.23;;;;;;;;;;6242170;28;20305;-80
2023/01/25 03:55:44;;;;;;;2.37;2.37;;;;;;;;;;6242227;28;20311;-80
2023/01/25 03:58:51;;;;;;;4.10;2.57;;;;;;;;;;6258366;28;20447;-80
2023/01/25 04:01:56;;;;;;;2.20;2.20;;;;;;;;;;6241142;28;20294;-80
2023/01/25 04:05:01;;;;;;;2.50;2.40;;;;;;;;;;6258952;28;20527;-80
2023/01/25 04:08:07;;;;;;;2.50;2.40;;;;;;;;;;6241908;28;20659;-80
2023/01/25 04:11:16;;;;;;;2.60;2.50;;;;;;;;;;6259068;28;20298;-80
2023/01/25 04:14:25;;;;;;;2.30;2.20;;;;;;;;;;6241479;28;20301;-80
2023/01/25 04:17:49;;;;;;;2.33;2.23;;;;;;;;;;6258779;28;20583;-80
2023/01/25 04:20:59;;;;;;;2.33;2.23;;;;;;;;;;6241549;28;20291;-80
2023/01/25 04:24:04;;;;;;;2.60;2.40;;;;;;;;;;6241021;28;20294;-81
2023/01/25 04:27:13;;;;;;;2.27;2.17;;;;;;;;;;6250517;28;20303;-80
2023/01/25 04:30:31;;;;;;;2.27;2.27;;;;;;;;;;6217519;28;20295;-80
2023/01/25 04:33:38;;;;;;;2.40;2.30;;;;;;;;;;6231164;28;20290;-81
2023/01/25 04:36:45;;;;;;;2.50;2.40;;;;;;;;;;6234481;28;20299;-80
2023/01/25 04:39:50;;;;;;;2.47;2.37;;;;;;;;;;6237588;28;20430;-80
2023/01/25 04:42:57;;;;;;;2.47;2.37;;;;;;;;;;6222180;28;20298;-80
2023/01/25 04:46:05;;;;;;;2.30;2.20;;;;;;;;;;6223190;28;20299;-80
2023/01/25 04:49:11;;;;;;;2.97;2.77;;;;;;;;;;6239217;28;20311;-80
2023/01/25 04:52:19;;;;;;;2.93;2.83;;;;;;;;;;6223358;28;20356;-80
2023/01/25 04:55:25;;;;;;;2.47;2.43;;;;;;;;;;6221973;28;20303;-80
2023/01/25 04:58:32;;;;;;;2.60;2.50;;;;;;;;;;6222139;28;20291;-81
2023/01/25 05:01:40;;;;;;;2.40;2.30;;;;;;;;;;6222281;28;20295;-81
2023/01/25 05:04:46;;;;;;;2.50;2.40;;;;;;;;;;6213034;28;20292;-78
2023/01/25 05:07:51;;;;;;;2.67;2.53;;;;;;;;;;6214289;28;20293;-81
2023/01/25 05:10:56;;;;;;;2.70;2.60;;;;;;;;;;6224550;28;20279;-81
2023/01/25 05:14:37;;;;;;;2.47;2.47;;;;;;;;;;6238460;28;20303;-80
2023/01/25 05:17:45;;;;;;;2.90;2.70;;;;;;;;;;6238293;28;20303;-80
2023/01/25 05:20:55;;;;;;;2.60;2.50;;;;;;;;;;6237789;28;20608;-80
2023/01/25 05:24:03;;;;;;;4.30;2.80;;;;;;;;;;6237275;28;20465;-79
2023/01/25 05:27:10;;;;;;;2.70;2.60;;;;;;;;;;6237644;28;20299;-80
2023/01/25 05:30:30;;;;;;;2.63;2.53;;;;;;;;;;6238749;28;20450;-80
2023/01/25 05:33:48;;;;;;;2.90;2.83;;;;;;;;;;6237315;28;20474;-80
2023/01/25 05:36:55;;;;;;;2.90;2.70;;;;;;;;;;6237896;28;20312;-80
2023/01/25 05:40:00;;;;;;;2.80;2.67;;;;;;;;;;6237424;28;20303;-80
2023/01/25 05:43:08;;;;;;;2.67;2.57;;;;;;;;;;6237585;28;20470;-80
2023/01/25 05:46:16;;;;;;;3.13;2.90;;;;;;;;;;6237882;28;20296;-81
2023/01/25 05:49:24;;;;;;;2.70;2.70;;;;;;;;;;6220347;28;20303;-81
2023/01/25 05:52:29;;;;;;;2.80;2.80;;;;;;;;;;6237705;28;20295;-80
2023/01/25 05:55:36;;;;;;;2.87;2.77;;;;;;;;;;6237877;28;20299;-82
2023/01/25 05:58:46;;;;;;;2.80;2.70;;;;;;;;;;6236765;28;20580;-80
2023/01/25 06:01:53;;;;;;;3.17;2.90;;;;;;;;;;6239191;28;20276;-80
2023/01/25 06:05:00;;;;;;;3.00;2.90;;;;;;;;;;6249488;28;20304;-80
2023/01/25 06:08:06;;;;;;;3.07;2.87;;;;;;;;;;6253079;28;20306;-79
2023/01/25 06:11:23;;;;;;;3.43;3.13;;;;;;;;;;6234611;28;20291;-81
2023/01/25 06:14:30;;;;;;;5.90;2.87;;;;;;;;;;6212628;28;20465;-81
2023/01/25 06:17:36;;;;;;;3.20;3.10;;;;;;;;;;6212672;28;20288;-80
2023/01/25 06:20:57;;;;;;;2.87;2.77;;;;;;;;;;6228360;28;20432;-81
2023/01/25 06:24:13;;;;;;;3.07;2.97;;;;;;;;;;6211234;28;20428;-80
2023/01/25 06:27:18;;;;;;;3.40;3.20;;;;;;;;;;6189703;28;20300;-80
2023/01/25 06:30:23;;;;;;;3.33;3.20;;;;;;;;;;6188187;28;20297;-80
2023/01/25 06:33:28;;;;;;;3.03;2.97;;;;;;;;;;6213106;28;20292;-80
2023/01/25 06:36:35;;;;;;;2.90;2.80;;;;;;;;;;6236768;28;20296;-80
2023/01/25 06:39:40;;;;;;;3.07;2.97;;;;;;;;;;6237661;28;20300;-80
2023/01/25 06:42:45;;;;;;;2.97;2.87;;;;;;;;;;6237821;28;20304;-80
2023/01/25 06:45:51;;;;;;;3.20;3.10;;;;;;;;;;6237113;28;20480;-79
2023/01/25 06:48:56;;;;;;;3.40;3.20;;;;;;;;;;6237052;28;20368;-79
2023/01/25 06:52:03;;;;;;;3.50;3.30;;;;;;;;;;6238028;28;20307;-81
2023/01/25 06:55:12;;;;;;;2.90;2.80;;;;;;;;;;6235893;28;20399;-80
2023/01/25 06:58:18;;;;;;;3.20;3.10;;;;;;;;;;6236886;28;20296;-80
2023/01/25 07:01:26;;;;;;;5.20;3.17;;;;;;;;;;6235721;28;20293;-79
2023/01/25 07:04:31;;;;;;;2.50;2.50;;;;;;;;;;6254628;28;20290;-80
2023/01/25 07:07:38;;;;;;;3.17;2.97;;;;;;;;;;6261951;28;20295;-79
2023/01/25 07:10:43;;;;;;;2.77;2.67;;;;;;;;;;6261062;28;20302;-81
2023/01/25 07:13:49;;;;;;;2.63;2.63;;;;;;;;;;6260798;28;20306;-81
2023/01/25 07:16:55;;;;;;;2.90;2.80;;;;;;;;;;6244226;28;20287;-80
2023/01/25 07:20:00;;;;;;;2.90;2.80;;;;;;;;;;6260825;28;20307;-79
2023/01/25 07:23:07;;;;;;;3.43;2.60;;;;;;;;;;6260610;28;20426;-80
2023/01/25 07:26:17;;;;;;;2.40;2.40;;;;;;;;;;6242368;28;20300;-81
2023/01/25 07:29:23;;;;;;;2.70;2.60;;;;;;;;;;6236412;28;20300;-82
2023/01/25 07:32:28;;;;;;;2.63;2.43;;;;;;;;;;6240112;28;20284;-82
2023/01/25 07:35:33;;;;;;;2.77;2.60;;;;;;;;;;6260660;28;20307;-82
2023/01/25 07:38:40;;;;;;;2.10;2.10;;;;;;;;;;6260819;28;20323;-80
2023/01/25 07:41:45;;;;;;;2.27;2.10;;;;;;;;;;6261480;28;20295;-80
2023/01/25 07:44:52;;;;;;;2.20;2.20;;;;;;;;;;6244123;28;20303;-80
2023/01/25 07:47:58;;;;;;;2.50;2.50;;;;;;;;;;6261130;28;20401;-79
2023/01/25 07:51:21;;;;;;;2.33;2.23;;;;;;;;;;6261630;28;20458;-81
2023/01/25 07:54:28;;;;;;;1.90;1.90;;;;;;;;;;6261266;28;20300;-80
2023/01/25 07:57:33;;;;;;;1.97;1.97;;;;;;;;;;6266110;28;20292;-80
2023/01/25 08:00:39;;;;;;;2.13;1.93;;;;;;;;;;6270766;28;20302;-80
2023/01/25 08:03:45;;;;;;;1.80;1.80;;;;;;;;;;6270782;28;20303;-80
2023/01/25 08:06:50;;;;;;;2.17;1.90;;;;;;;;;;6255263;28;20292;-79
2023/01/25 08:09:57;;;;;;;1.60;1.60;;;;;;;;;;6272356;28;20287;-83
2023/01/25 08:13:02;;;;;;;1.90;1.80;;;;;;;;;;6265345;28;20292;-80
2023/01/25 08:16:07;;;;;;;1.73;1.73;;;;;;;;;;6261630;28;20438;-80
2023/01/25 08:19:13;;;;;;;1.50;1.50;;;;;;;;;;6260663;28;20296;-80
2023/01/25 08:22:18;;;;;;;2.67;1.50;;;;;;;;;;6260816;28;20291;-79
2023/01/25 08:25:25;;;;;;;1.50;1.50;;;;;;;;;;6260017;28;20295;-81
2023/01/25 08:28:30;;;;;;;2.40;1.70;;;;;;;;;;6243035;28;20552;-81
2023/01/25 08:31:36;;;;;;;2.70;1.60;;;;;;;;;;6260886;28;20284;-81
2023/01/25 08:34:41;;;;;;;1.30;1.30;;;;;;;;;;6259832;28;20303;-80
2023/01/25 08:37:46;;;;;;;1.20;1.20;;;;;;;;;;6258874;28;20555;-79
2023/01/25 08:40:53;;;;;;;1.23;1.23;;;;;;;;;;6258866;28;20300;-80
2023/01/25 08:43:58;;;;;;;1.20;1.20;;;;;;;;;;6242317;28;20319;-81
2023/01/25 08:47:04;;;;;;;1.43;1.40;;;;;;;;;;6259955;28;20551;-81
2023/01/25 08:50:10;;;;;;;1.23;1.23;;;;;;;;;;6259575;28;20311;-81
2023/01/25 08:53:16;;;;;;;1.43;1.43;;;;;;;;;;6259510;28;20442;-82
2023/01/25 08:56:22;;;;;;;1.10;1.10;;;;;;;;;;6260078;28;20287;-81
2023/01/25 08:59:28;;;;;;;1.30;1.30;;;;;;;;;;6259688;28;20307;-81
2023/01/25 09:02:33;;;;;;;1.20;1.20;;;;;;;;;;6260064;28;20292;-79
2023/01/25 09:05:40;;;;;;;1.20;1.20;;;;;;;;;;6259433;28;20287;-80
2023/01/25 09:08:45;;;;;;;1.13;1.13;;;;;;;;;;6259059;28;20296;-81
2023/01/25 09:11:52;;;;;;;1.30;1.30;;;;;;;;;;6259403;28;20335;-80
2023/01/25 09:14:57;;;;;;;1.27;1.27;;;;;;;;;;6258948;28;20431;-81
2023/01/25 09:18:02;;;;;;;1.20;1.20;;;;;;;;;;6241459;28;20327;-80
2023/01/25 09:21:09;;;;;;;1.30;1.30;;;;;;;;;;6259007;28;20603;-80
2023/01/25 09:24:14;;;;;;;1.30;1.30;;;;;;;;;;6256204;28;20490;-80
2023/01/25 09:27:20;;;;;;;1.37;1.37;;;;;;;;;;6239251;28;20583;-80
2023/01/25 09:30:26;;;;;;;1.20;1.20;;;;;;;;;;6238451;28;20300;-80
2023/01/25 09:33:57;;;;;;;1.17;1.17;;;;;;;;;;6261831;28;20476;-80
2023/01/25 09:37:02;;;;;;;1.00;1.00;;;;;;;;;;6263635;28;20587;-81
2023/01/25 09:40:14;;;;;;;1.10;1.10;;;;;;;;;;6263170;28;20304;-80
2023/01/25 09:43:30;;;;;;;1.13;1.13;;;;;;;;;;6261700;28;20295;-80
2023/01/25 09:46:41;;;;;;;1.20;1.20;;;;;;;;;;6262809;28;20304;-80
2023/01/25 09:49:58;;;;;;;1.17;1.17;;;;;;;;;;6262469;28;20299;-79
2023/01/25 09:53:25;;;;;;;1.00;1.00;;;;;;;;;;6262766;28;20536;-80
2023/01/25 09:56:34;;;;;;;0.93;0.93;;;;;;;;;;6262833;28;20287;-80
2023/01/25 09:59:43;;;;;;;1.07;1.07;;;;;;;;;;6263057;28;20295;-79
2023/01/25 10:02:51;;;;;;;1.37;1.37;;;;;;;;;;6262978;28;20300;-80
2023/01/25 10:05:59;;;;;;;1.63;1.53;;;;;;;;;;6262133;28;20296;-80
2023/01/25 10:09:16;;;;;;;1.10;1.10;;;;;;;;;;6262593;28;20304;-80
2023/01/25 10:12:22;;;;;;;1.02;1.02;;;;;;;;;;6262958;28;20288;-79
2023/01/25 10:15:33;;;;;;;1.07;1.07;;;;;;;;;;6261415;28;20299;-81
2023/01/25 10:18:51;;;;;;;1.00;1.00;;;;;;;;;;6262426;28;20291;-81
2023/01/25 10:22:00;;;;;;;0.93;0.93;;;;;;;;;;6262967;28;20296;-79
2023/01/25 10:25:22;;;;;;;1.10;1.10;;;;;;;;;;6262312;28;20295;-80
2023/01/25 10:28:40;;;;;;;0.90;0.90;;;;;;;;;;6265546;28;20464;-79
2023/01/25 10:31:49;;;;;;;1.10;1.10;;;;;;;;;;6265874;28;20284;-81
2023/01/25 10:34:56;;;;;;;1.30;1.30;;;;;;;;;;6244450;28;20296;-79
2023/01/25 10:38:05;;;;;;;1.17;1.17;;;;;;;;;;6261919;28;20307;-80
2023/01/25 10:41:14;;;;;;;1.05;1.00;;;;;;;;;;6261836;28;20300;-80
2023/01/25 10:44:24;;;;;;;1.40;1.40;;;;;;;;;;6227109;28;20355;-81
2023/01/25 10:47:35;;;;;;;2.25;1.27;;;;;;;;;;6262055;28;20295;-80
2023/01/25 10:50:46;;;;;;;1.15;1.08;;;;;;;;;;6261380;28;20291;-81
2023/01/25 10:53:59;;;;;;;1.20;1.20;;;;;;;;;;6261132;28;20389;-79
2023/01/25 10:57:07;;;;;;;0.93;0.93;;;;;;;;;;6261320;28;20295;-79
2023/01/25 11:00:24;;;;;;;1.00;1.00;;;;;;;;;;6260721;28;20296;-80
2023/01/25 11:03:40;;;;;;;1.20;1.20;;;;;;;;;;6261016;28;20287;-82
2023/01/25 11:06:51;;;;;;;2.00;1.20;;;;;;;;;;6261973;28;20428;-80
2023/01/25 11:09:57;;;;;;;1.65;1.02;;;;;;;;;;6262236;28;20296;-80
2023/01/25 11:13:21;;;;;;;0.90;0.90;;;;;;;;;;6260937;28;20288;-80
2023/01/25 11:16:34;;;;;;;2.37;1.00;;;;;;;;;;6261073;28;20304;-81
2023/01/25 11:19:41;;;;;;;1.10;1.10;;;;;;;;;;6243262;28;20303;-81
2023/01/25 11:22:55;;;;;;;1.10;1.10;;;;;;;;;;6233149;28;20279;-79
2023/01/25 11:26:16;;;;;;;0.90;0.90;;;;;;;;;;6260369;28;20284;-80
2023/01/25 11:29:22;;;;;;;1.10;1.10;;;;;;;;;;6242888;28;20296;-80
2023/01/25 11:32:30;;;;;;;1.10;1.10;;;;;;;;;;6261113;28;20288;-80
2023/01/25 11:35:37;;;;;;;1.33;1.20;;;;;;;;;;6260898;28;20299;-80
2023/01/25 11:38:50;;;;;;;1.10;1.10;;;;;;;;;;6242865;28;20292;-81
2023/01/25 11:42:06;;;;;;;0.90;0.90;;;;;;;;;;6260829;28;20311;-80
2023/01/25 11:45:38;;;;;;;1.20;1.20;;;;;;;;;;6261820;28;20295;-80
2023/01/25 11:49:12;;;;;;;0.90;0.90;;;;;;;;;;6260019;28;20295;-81
2023/01/25 11:52:28;;;;;;;1.17;1.17;;;;;;;;;;6243609;28;20300;-81
2023/01/25 11:55:37;;;;;;;0.90;0.90;;;;;;;;;;6259933;28;20296;-80
2023/01/25 11:59:14;;;;;;;1.10;1.10;;;;;;;;;;6259790;28;20307;-80
2023/01/25 12:02:37;;;;;;;1.15;1.15;;;;;;;;;;6257590;28;20283;-81
2023/01/25 12:05:50;;;;;;;0.90;0.90;;;;;;;;;;6235616;28;20292;-80
2023/01/25 12:09:09;;;;;;;1.10;1.10;;;;;;;;;;6236293;28;20293;-80
2023/01/25 12:12:24;;;;;;;0.90;0.90;;;;;;;;;;6214005;28;20301;-80
2023/01/25 12:15:41;;;;;;;2.38;1.10;;;;;;;;;;6210855;28;20301;-80
2023/01/25 12:18:57;;;;;;;1.00;1.00;;;;;;;;;;6209968;28;20444;-81
2023/01/25 12:22:24;;;;;;;1.00;1.00;;;;;;;;;;6211634;28;20570;-81
2023/01/25 12:25:40;;;;;;;1.00;1.00;;;;;;;;;;6198811;28;20594;-80
2023/01/25 12:28:51;;;;;;;1.00;1.00;;;;;;;;;;6186806;28;20297;-80
2023/01/25 12:32:01;;;;;;;1.30;1.30;;;;;;;;;;6187045;28;20293;-80
2023/01/25 12:35:24;;;;;;;1.13;1.13;;;;;;;;;;6186399;28;20570;-82
2023/01/25 12:38:35;;;;;;;1.30;1.30;;;;;;;;;;6187035;28;20301;-81
2023/01/25 12:41:44;;;;;;;1.30;1.30;;;;;;;;;;6187269;28;20372;-80
2023/01/25 12:44:54;;;;;;;1.70;1.60;;;;;;;;;;6186443;28;20301;-80
2023/01/25 12:48:02;;;;;;;1.50;1.50;;;;;;;;;;6186458;28;20313;-79
2023/01/25 12:51:07;;;;;;;1.40;1.40;;;;;;;;;;6187207;28;20302;-80
2023/01/25 12:54:20;;;;;;;1.40;1.40;;;;;;;;;;6185411;28;20338;-80
2023/01/25 12:57:29;;;;;;;1.40;1.40;;;;;;;;;;6187428;28;20289;-82
2023/01/25 13:00:36;;;;;;;1.50;1.50;;;;;;;;;;6190488;28;20304;-81
2023/01/25 13:04:04;;;;;;;1.33;1.33;;;;;;;;;;6200039;28;20292;-80
2023/01/25 13:07:19;;;;;;;1.70;1.70;;;;;;;;;;6215698;28;20288;-80
2023/01/25 13:10:29;;;;;;;1.60;1.60;;;;;;;;;;6222129;28;20300;-81
2023/01/25 13:13:36;;;;;;;1.80;1.80;;;;;;;;;;6239580;28;20568;-81
2023/01/25 13:16:43;;;;;;;1.80;1.80;;;;;;;;;;6240091;28;20299;-80
2023/01/25 13:19:49;;;;;;;1.87;1.87;;;;;;;;;;6238761;28;20580;-81
2023/01/25 13:22:57;;;;;;;1.60;1.60;;;;;;;;;;6237840;28;20276;-80
2023/01/25 13:26:36;;;;;;;2.43;1.97;;;;;;;;;;6239709;28;20292;-80
2023/01/25 13:29:46;;;;;;;2.33;2.23;;;;;;;;;;6237651;28;20300;-81
2023/01/25 13:32:58;;;;;;;2.00;2.00;;;;;;;;;;6239577;28;20300;-82
2023/01/25 13:36:38;;;;;;;2.13;2.03;;;;;;;;;;6237653;28;20292;-82
2023/01/25 13:39:44;;;;;;;1.93;1.93;;;;;;;;;;6239247;28;20296;-80
2023/01/25 13:43:00;;;;;;;2.10;2.10;;;;;;;;;;6239539;28;20311;-81
2023/01/25 13:46:10;;;;;;;2.20;2.07;;;;;;;;;;6238285;28;20291;-81
2023/01/25 13:49:22;;;;;;;2.17;2.07;;;;;;;;;;6238586;28;20304;-80
2023/01/25 13:52:29;;;;;;;2.20;2.10;;;;;;;;;;6238895;28;20303;-81
2023/01/25 13:55:43;;;;;;;2.07;2.07;;;;;;;;;;6238539;28;20303;-80
2023/01/25 13:58:48;;;;;;;2.47;2.20;;;;;;;;;;6237898;28;20379;-81
2023/01/25 14:01:55;;;;;;;2.67;2.57;;;;;;;;;;6238403;28;20380;-81
2023/01/25 14:05:01;;;;;;;2.23;2.23;;;;;;;;;;6259358;28;20295;-81
2023/01/25 14:08:14;;;;;;;2.30;2.20;;;;;;;;;;6262117;28;20314;-81
2023/01/25 14:11:20;;;;;;;2.30;2.20;;;;;;;;;;6236536;28;20400;-80
2023/01/25 14:14:27;;;;;;;2.73;2.33;;;;;;;;;;6237337;28;20296;-80
2023/01/25 14:17:34;;;;;;;1.97;1.97;;;;;;;;;;6238114;28;20295;-80
2023/01/25 14:20:40;;;;;;;2.23;2.10;;;;;;;;;;6237576;28;20300;-80
2023/01/25 14:23:45;;;;;;;2.90;2.80;;;;;;;;;;6237892;28;20348;-81
2023/01/25 14:26:53;;;;;;;2.30;2.30;;;;;;;;;;6261841;28;20310;-80
2023/01/25 14:29:58;;;;;;;2.30;2.30;;;;;;;;;;6261577;28;20299;-80
2023/01/25 14:33:17;;;;;;;2.13;2.13;;;;;;;;;;6261703;28;20299;-79
2023/01/25 14:36:23;;;;;;;2.20;2.20;;;;;;;;;;6262160;28;20291;-80
2023/01/25 14:39:30;;;;;;;2.67;2.30;;;;;;;;;;6261517;28;20319;-80
2023/01/25 14:42:35;;;;;;;2.73;2.20;;;;;;;;;;6262185;28;20300;-81
2023/01/25 14:45:40;;;;;;;2.40;2.30;;;;;;;;;;6261479;28;20298;-79
2023/01/25 14:48:48;;;;;;;2.03;2.03;;;;;;;;;;6261657;28;20299;-80
2023/01/25 14:51:59;;;;;;;2.43;2.33;;;;;;;;;;6261838;28;20303;-80
2023/01/25 14:55:09;;;;;;;2.03;2.03;;;;;;;;;;6261353;28;20435;-79
2023/01/25 14:58:18;;;;;;;2.73;2.57;;;;;;;;;;6261253;28;20302;-80
2023/01/25 15:01:31;;;;;;;2.50;2.40;;;;;;;;;;6261320;28;20296;-79
2023/01/25 15:04:38;;;;;;;2.33;2.23;;;;;;;;;;6261220;28;20310;-81
2023/01/25 15:07:45;;;;;;;2.40;2.20;;;;;;;;;;6262482;28;20287;-80
2023/01/25 15:10:52;;;;;;;2.07;2.03;;;;;;;;;;6242478;28;20296;-80
2023/01/25 15:14:03;;;;;;;3.17;2.10;;;;;;;;;;6260997;28;20302;-79
2023/01/25 15:17:39;;;;;;;2.50;2.30;;;;;;;;;;6245048;28;20297;-81
2023/01/25 15:20:48;;;;;;;2.20;2.10;;;;;;;;;;6261112;28;20303;-80
2023/01/25 15:23:54;;;;;;;2.87;2.77;;;;;;;;;;6260432;28;20303;-80
2023/01/25 15:27:02;;;;;;;2.73;2.60;;;;;;;;;;6237812;28;20588;-80
2023/01/25 15:30:13;;;;;;;2.03;2.03;;;;;;;;;;6237792;28;20303;-80
2023/01/25 15:33:21;;;;;;;2.13;2.07;;;;;;;;;;6247500;28;20295;-83
2023/01/25 15:36:28;;;;;;;2.00;1.90;;;;;;;;;;6261421;28;20299;-80
2023/01/25 15:39:33;;;;;;;2.73;2.57;;;;;;;;;;6260685;28;20306;-82
2023/01/25 15:42:39;;;;;;;2.33;2.33;;;;;;;;;;6259988;28;20295;-79
2023/01/25 15:45:45;;;;;;;2.07;2.07;;;;;;;;;;6243403;28;20547;-79
2023/01/25 15:48:51;;;;;;;2.23;2.23;;;;;;;;;;6260424;28;20298;-79
2023/01/25 15:51:58;;;;;;;2.23;2.20;;;;;;;;;;6261247;28;20461;-80
2023/01/25 15:55:03;;;;;;;3.17;2.27;;;;;;;;;;6260784;28;20335;-80
2023/01/25 15:58:11;;;;;;;2.33;2.23;;;;;;;;;;6259911;28;20287;-80
2023/01/25 16:01:16;;;;;;;2.30;2.20;;;;;;;;;;6260494;28;20502;-80
2023/01/25 16:04:24;;;;;;;2.30;2.30;;;;;;;;;;6259845;28;20463;-80
2023/01/25 16:07:30;;;;;;;3.03;2.53;;;;;;;;;;6260725;28;20298;-81
2023/01/25 16:10:36;;;;;;;2.60;2.40;;;;;;;;;;6260326;28;20291;-80
2023/01/25 16:13:40;;;;;;;2.70;2.60;;;;;;;;;;6261023;28;20295;-82
2023/01/25 16:16:48;;;;;;;2.40;2.30;;;;;;;;;;6243608;28;20298;-80
2023/01/25 16:19:53;;;;;;;2.47;2.37;;;;;;;;;;6259379;28;20292;-81
2023/01/25 16:23:01;;;;;;;2.73;2.60;;;;;;;;;;6240876;28;20267;-81
2023/01/25 16:26:14;;;;;;;2.67;2.57;;;;;;;;;;6231603;28;20296;-80
2023/01/25 16:29:20;;;;;;;3.10;2.90;;;;;;;;;;6247986;28;20294;-80
2023/01/25 16:32:28;;;;;;;3.10;2.93;;;;;;;;;;6252721;28;20299;-83
2023/01/25 16:35:33;;;;;;;3.07;2.60;;;;;;;;;;6255261;28;20290;-84
2023/01/25 16:38:40;;;;;;;3.27;3.07;;;;;;;;;;6256373;28;20588;-82
2023/01/25 16:41:45;;;;;;;2.80;2.63;;;;;;;;;;6251635;28;20482;-81
2023/01/25 16:44:52;;;;;;;3.07;2.73;;;;;;;;;;6251988;28;20301;-83
2023/01/25 16:47:58;;;;;;;2.70;2.60;;;;;;;;;;6243491;28;20443;-80
2023/01/25 16:51:03;;;;;;;2.50;2.40;;;;;;;;;;6243642;28;20296;-84
2023/01/25 16:54:12;;;;;;;4.00;2.70;;;;;;;;;;6243214;28;20307;-81
2023/01/25 16:57:17;;;;;;;3.00;2.90;;;;;;;;;;6243868;28;20330;-79
2023/01/25 17:00:24;;;;;;;3.03;2.80;;;;;;;;;;6243603;28;20603;-81
2023/01/25 17:03:30;;;;;;;3.10;3.00;;;;;;;;;;6243207;28;20400;-81
2023/01/25 17:06:37;;;;;;;2.70;2.60;;;;;;;;;;6244047;28;20303;-81
2023/01/25 17:09:43;;;;;;;2.50;2.40;;;;;;;;;;6225139;28;20319;-80
2023/01/25 17:12:49;;;;;;;3.17;2.97;;;;;;;;;;6267926;28;20294;-79
2023/01/25 17:15:56;;;;;;;2.87;2.50;;;;;;;;;;6265597;28;20292;-81
2023/01/25 17:19:04;;;;;;;2.83;2.63;;;;;;;;;;6265426;28;20303;-80
2023/01/25 17:22:12;;;;;;;2.20;2.20;;;;;;;;;;6266633;28;20445;-83
2023/01/25 17:25:19;;;;;;;2.37;2.27;;;;;;;;;;6265827;28;20302;-82
2023/01/25 17:28:26;;;;;;;2.20;2.20;;;;;;;;;;6267409;28;20551;-81
2023/01/25 17:31:33;;;;;;;2.03;1.90;;;;;;;;;;6267592;28;20298;-81
2023/01/25 17:34:38;;;;;;;2.20;2.07;;;;;;;;;;6266727;28;20516;-82
2023/01/25 17:37:44;;;;;;;2.30;2.13;;;;;;;;;;6266407;28;20300;-80
2023/01/25 17:40:50;;;;;;;2.07;2.07;;;;;;;;;;6266387;28;20303;-81
2023/01/25 17:43:56;;;;;;;2.00;2.00;;;;;;;;;;6266705;28;20294;-81
2023/01/25 17:47:01;;;;;;;1.83;1.83;;;;;;;;;;6262509;28;20276;-82
2023/01/25 17:50:07;;;;;;;2.07;2.07;;;;;;;;;;6263612;28;20306;-79
2023/01/25 17:53:14;;;;;;;2.30;1.77;;;;;;;;;;6261960;28;20421;-80
2023/01/25 17:56:21;;;;;;;1.97;1.87;;;;;;;;;;6263018;28;20296;-80
2023/01/25 17:59:26;;;;;;;1.80;1.80;;;;;;;;;;6262753;28;20575;-80
2023/01/25 18:02:31;;;;;;;1.73;1.63;;;;;;;;;;6262460;28;20291;-81
2023/01/25 18:05:38;;;;;;;2.87;2.40;;;;;;;;;;6262502;28;20322;-81
2023/01/25 18:08:44;;;;;;;1.83;1.83;;;;;;;;;;6262157;28;20304;-82
2023/01/25 18:11:51;;;;;;;3.03;2.83;;;;;;;;;;6262634;28;20528;-81
2023/01/25 18:14:56;;;;;;;2.80;2.60;;;;;;;;;;6261904;28;20311;-80
2023/01/25 18:18:02;;;;;;;2.20;2.10;;;;;;;;;;6244345;28;20302;-78
2023/01/25 18:21:09;;;;;;;3.53;3.23;;;;;;;;;;6260719;28;20303;-81
2023/01/25 18:24:26;;;;;;;5.33;2.47;;;;;;;;;;6244442;28;20311;-81
2023/01/25 18:27:33;;;;;;;6.80;3.03;;;;;;;;;;6263052;28;20572;-80
2023/01/25 18:30:43;;;;;;;2.30;2.20;;;;;;;;;;6262757;28;20594;-84
2023/01/25 18:33:48;;;;;;;1.90;1.80;;;;;;;;;;6261090;28;20307;-85
2023/01/25 18:36:57;;;;;;;2.80;2.60;;;;;;;;;;6261528;28;20302;-79
2023/01/25 18:40:02;;;;;;;1.93;1.70;;;;;;;;;;6261760;28;20304;-78
2023/01/25 18:43:08;;;;;;;6.23;2.97;;;;;;;;;;6261164;28;20306;-80
2023/01/25 18:46:14;;;;;;;12.70;4.80;;;;;;;;;;6244169;28;20301;-80
2023/01/25 18:49:21;;;;;;;14.10;5.60;;;;;;;;;;6261630;28;20298;-81
2023/01/25 18:52:26;;;;;;;11.57;5.87;;;;;;;;;;6261997;28;20296;-79